createdAt,value
2022-09-17T00:00:28.188Z,94684.22
2022-09-17T00:03:14.144Z,94683.97
2022-09-17T00:06:07.478Z,94674.72
2022-09-17T00:08:54.016Z,94692.91
2022-09-17T00:11:42.157Z,94690.16
2022-09-17T00:14:28.410Z,94685.56
2022-09-17T00:17:14.412Z,94685.63
2022-09-17T00:20:00.295Z,94697.56
2022-09-17T00:22:46.144Z,94670.66
2022-09-17T00:25:32.088Z,94654.09
2022-09-17T00:28:18.238Z,94661.44
2022-09-17T00:31:09.478Z,94673.63
2022-09-17T00:33:55.576Z,94669.56
2022-09-17T00:36:41.956Z,94680.97
2022-09-17T00:39:28.100Z,94690.75
2022-09-17T00:42:14.848Z,94691.84
2022-09-17T00:45:01.455Z,94696.47
2022-09-17T00:47:59.002Z,94704.09
2022-09-17T00:50:45.199Z,94694.28
2022-09-17T00:53:31.666Z,94704.91
2022-09-17T00:56:23.308Z,94712.78
2022-09-17T00:59:09.862Z,94708.44
2022-09-17T01:01:55.995Z,94681.25
2022-09-17T01:04:42.970Z,94670.66
2022-09-17T01:07:42.520Z,94660.84
2022-09-17T01:10:46.933Z,94675.00
2022-09-17T01:13:54.536Z,94644.00
2022-09-17T01:17:03.339Z,94643.72
2022-09-17T01:20:09.267Z,94640.47
2022-09-17T01:23:37.771Z,94655.97
2022-09-17T01:26:32.800Z,94672.53
2022-09-17T01:29:24.586Z,94670.91
2022-09-17T01:32:20.665Z,94633.41
2022-09-17T01:35:13.474Z,94626.59
2022-09-17T01:38:05.412Z,94630.41
2022-09-17T01:40:54.719Z,94633.13
2022-09-17T01:44:09.841Z,94626.06
2022-09-17T01:47:11.061Z,94616.84
2022-09-17T01:50:11.906Z,94579.88
2022-09-17T01:52:58.373Z,94606.50
2022-09-17T01:55:45.939Z,94571.44
2022-09-17T01:58:35.602Z,94573.31
2022-09-17T02:01:22.320Z,94564.09
2022-09-17T02:04:13.715Z,94574.13
2022-09-17T02:07:04.720Z,94569.78
2022-09-17T02:09:57.551Z,94563.25
2022-09-17T02:12:47.261Z,94548.31
2022-09-17T02:15:37.830Z,94581.81
2022-09-17T02:18:28.729Z,94569.56
2022-09-17T02:21:26.864Z,94570.91
2022-09-17T02:24:31.374Z,94545.69
2022-09-17T02:27:25.090Z,94533.44
2022-09-17T02:30:11.154Z,94525.28
2022-09-17T02:32:57.413Z,94511.66
2022-09-17T02:35:44.304Z,94539.94
2022-09-17T02:38:31.129Z,94546.75
2022-09-17T02:41:21.017Z,94546.44
2022-09-17T02:44:20.904Z,94561.41
2022-09-17T02:47:25.046Z,94581.81
2022-09-17T02:50:30.942Z,94576.06
2022-09-17T02:53:44.714Z,94555.41
2022-09-17T02:56:45.869Z,94561.94
2022-09-17T02:59:59.490Z,94550.31
2022-09-17T03:02:56.490Z,94550.25
2022-09-17T03:05:42.835Z,94523.66
2022-09-17T03:08:31.078Z,94538.88
2022-09-17T03:11:16.955Z,94556.28
2022-09-17T03:14:02.797Z,94560.91
2022-09-17T03:16:48.708Z,94539.97
2022-09-17T03:19:34.572Z,94525.56
2022-09-17T03:22:20.369Z,94511.44
2022-09-17T03:25:06.701Z,94503.53
2022-09-17T03:27:52.683Z,94505.72
2022-09-17T03:30:38.761Z,94510.59
2022-09-17T03:33:24.940Z,94513.31
2022-09-17T03:36:10.765Z,94519.81
2022-09-17T03:38:58.628Z,94506.75
2022-09-17T03:41:44.597Z,94512.22
2022-09-17T03:44:30.367Z,94535.59
2022-09-17T03:47:17.059Z,94546.44
2022-09-17T03:50:03.518Z,94558.44
2022-09-17T03:52:49.294Z,94541.88
2022-09-17T03:55:38.500Z,94537.50
2022-09-17T03:58:24.673Z,94525.81
2022-09-17T04:01:10.637Z,94498.09
2022-09-17T04:03:57.423Z,94505.16
2022-09-17T04:06:43.706Z,94504.09
2022-09-17T04:09:30.047Z,94521.19
2022-09-17T04:12:15.893Z,94526.63
2022-09-17T04:15:01.667Z,94542.66
2022-09-17T04:17:47.653Z,94532.06
2022-09-17T04:20:33.926Z,94523.63
2022-09-17T04:23:19.672Z,94532.91
2022-09-17T04:26:05.877Z,94563.31
2022-09-17T04:28:51.985Z,94545.41
2022-09-17T04:31:37.995Z,94569.03
2022-09-17T04:34:23.959Z,94569.84
2022-09-17T04:37:09.874Z,94568.22
2022-09-17T04:39:55.922Z,94563.31
2022-09-17T04:42:42.129Z,94556.28
2022-09-17T04:45:27.979Z,94551.13
2022-09-17T04:48:13.968Z,94555.16
2022-09-17T04:51:00.134Z,94576.38
2022-09-17T04:53:46.032Z,94566.84
2022-09-17T04:56:31.907Z,94549.22
2022-09-17T04:59:18.021Z,94543.50
2022-09-17T05:02:04.345Z,94544.84
2022-09-17T05:04:50.750Z,94528.28
2022-09-17T05:07:38.885Z,94528.56
2022-09-17T05:10:25.500Z,94515.22
2022-09-17T05:13:11.740Z,94516.88
2022-09-17T05:15:57.650Z,94518.75
2022-09-17T05:18:43.646Z,94517.41
2022-09-17T05:21:30.029Z,94553.00
2022-09-17T05:24:15.972Z,94539.69
2022-09-17T05:27:01.966Z,94572.25
2022-09-17T05:29:48.052Z,94602.09
2022-09-17T05:32:35.155Z,94602.13
2022-09-17T05:35:21.090Z,94576.06
2022-09-17T05:38:09.639Z,94557.91
2022-09-17T05:40:55.667Z,94547.59
2022-09-17T05:43:43.780Z,94558.41
2022-09-17T05:46:29.866Z,94564.94
2022-09-17T05:49:16.151Z,94564.41
2022-09-17T05:52:03.656Z,94559.50
2022-09-17T05:54:49.952Z,94554.06
2022-09-17T05:57:35.692Z,94569.84
2022-09-17T06:00:21.650Z,94564.66
2022-09-17T06:03:09.277Z,94557.06
2022-09-17T06:05:56.947Z,94545.63
2022-09-17T06:08:43.131Z,94542.13
2022-09-17T06:11:29.107Z,94527.44
2022-09-17T06:14:15.609Z,94514.72
2022-09-17T06:17:01.593Z,94520.66
2022-09-17T06:19:47.532Z,94523.69
2022-09-17T06:22:33.701Z,94505.97
2022-09-17T06:25:19.892Z,94487.53
2022-09-17T06:28:05.972Z,94503.84
2022-09-17T06:30:54.575Z,94494.91
2022-09-17T06:33:41.116Z,94500.03
2022-09-17T06:36:27.312Z,94492.69
2022-09-17T06:39:13.337Z,94490.50
2022-09-17T06:41:59.613Z,94500.03
2022-09-17T06:44:47.934Z,94510.63
2022-09-17T06:47:33.729Z,94491.34
2022-09-17T06:50:20.015Z,94506.56
2022-09-17T06:53:06.092Z,94510.06
2022-09-17T06:55:51.886Z,94539.41
2022-09-17T06:58:38.325Z,94544.81
2022-09-17T07:01:24.212Z,94550.25
2022-09-17T07:04:10.174Z,94541.84
2022-09-17T07:06:56.137Z,94509.00
2022-09-17T07:09:42.272Z,94492.16
2022-09-17T07:12:28.423Z,94502.22
2022-09-17T07:15:15.873Z,94498.41
2022-09-17T07:18:08.608Z,94486.72
2022-09-17T07:21:02.613Z,94501.94
2022-09-17T07:23:48.714Z,94510.88
2022-09-17T07:26:34.796Z,94518.25
2022-09-17T07:29:21.482Z,94503.81
2022-09-17T07:32:07.933Z,94494.06
2022-09-17T07:34:53.974Z,94507.09
2022-09-17T07:37:40.149Z,94541.59
2022-09-17T07:40:26.210Z,94543.50
2022-09-17T07:43:12.194Z,94539.13
2022-09-17T07:45:59.171Z,94536.16
2022-09-17T07:48:46.812Z,94533.16
2022-09-17T07:51:32.534Z,94532.34
2022-09-17T07:54:19.254Z,94529.06
2022-09-17T07:57:05.794Z,94547.56
2022-09-17T07:59:52.014Z,94550.25
2022-09-17T08:02:38.009Z,94539.69
2022-09-17T08:05:24.977Z,94546.19
2022-09-17T08:08:10.971Z,94551.06
2022-09-17T08:11:00.591Z,94560.31
2022-09-17T08:13:51.182Z,94541.03
2022-09-17T08:16:37.192Z,94536.44
2022-09-17T08:19:23.105Z,94524.19
2022-09-17T08:22:08.816Z,94526.09
2022-09-17T08:24:54.711Z,94527.75
2022-09-17T08:27:40.843Z,94544.88
2022-09-17T08:30:26.694Z,94543.22
2022-09-17T08:33:12.621Z,94545.13
2022-09-17T08:36:01.276Z,94567.41
2022-09-17T08:38:47.291Z,94566.59
2022-09-17T08:42:02.452Z,94586.13
2022-09-17T08:44:51.846Z,94583.97
2022-09-17T08:47:40.942Z,94556.81
2022-09-17T08:50:31.170Z,94533.72
2022-09-17T08:53:32.343Z,94526.63
2022-09-17T08:56:19.413Z,94549.47
2022-09-17T08:59:48.217Z,94548.09
2022-09-17T09:02:52.852Z,94521.50
2022-09-17T09:05:46.133Z,94497.28
2022-09-17T09:08:43.664Z,94489.69
2022-09-17T09:11:31.015Z,94505.97
2022-09-17T09:14:24.535Z,94504.63
2022-09-17T09:17:11.058Z,94482.88
2022-09-17T09:19:58.022Z,94476.94
2022-09-17T09:22:50.827Z,94476.94
2022-09-17T09:25:43.174Z,94470.16
2022-09-17T09:28:35.476Z,94465.50
2022-09-17T09:31:47.483Z,94468.22
2022-09-17T09:34:34.837Z,94479.63
2022-09-17T09:37:26.935Z,94494.03
2022-09-17T09:40:36.659Z,94497.59
2022-09-17T09:43:46.577Z,94491.88
2022-09-17T09:46:48.338Z,94524.75
2022-09-17T09:49:36.631Z,94507.91
2022-09-17T09:52:39.025Z,94533.41
2022-09-17T09:55:34.142Z,94539.97
2022-09-17T09:58:41.736Z,94548.34
2022-09-17T10:01:29.176Z,94541.03
2022-09-17T10:04:35.184Z,94549.44
2022-09-17T10:07:21.247Z,94541.25
2022-09-17T10:10:10.924Z,94535.56
2022-09-17T10:13:07.436Z,94524.38
2022-09-17T10:15:53.504Z,94503.44
2022-09-17T10:18:39.836Z,94526.78
2022-09-17T10:21:39.777Z,94527.34
2022-09-17T10:24:27.866Z,94521.06
2022-09-17T10:27:16.945Z,94515.88
2022-09-17T10:30:09.076Z,94506.63
2022-09-17T10:33:12.096Z,94461.53
2022-09-17T10:36:04.534Z,94478.63
2022-09-17T10:38:50.453Z,94456.63
2022-09-17T10:41:36.289Z,94468.28
2022-09-17T10:44:24.334Z,94452.19
2022-09-17T10:47:31.178Z,94427.75
2022-09-17T10:50:19.415Z,94425.44
2022-09-17T10:53:07.363Z,94410.16
2022-09-17T10:56:14.651Z,94413.41
2022-09-17T10:59:09.600Z,94392.69
2022-09-17T11:02:14.346Z,94393.94
2022-09-17T11:05:03.487Z,94396.84
2022-09-17T11:07:57.273Z,94388.91
2022-09-17T11:11:01.919Z,94388.66
2022-09-17T11:14:09.690Z,94389.25
2022-09-17T11:17:17.597Z,94398.34
2022-09-17T11:20:34.352Z,94396.13
2022-09-17T11:23:26.464Z,94374.84
2022-09-17T11:26:21.479Z,94383.03
2022-09-17T11:29:41.611Z,94375.91
2022-09-17T11:32:52.128Z,94365.81
2022-09-17T11:35:46.895Z,94380.06
2022-09-17T11:38:44.026Z,94387.13
2022-09-17T11:41:42.665Z,94377.91
2022-09-17T11:44:33.651Z,94371.63
2022-09-17T11:47:24.243Z,94384.81
2022-09-17T11:51:12.106Z,94383.53
2022-09-17T11:54:24.186Z,94378.13
2022-09-17T11:57:27.942Z,94366.13
2022-09-17T12:00:20.010Z,94359.50
2022-09-17T12:03:15.939Z,94354.78
2022-09-17T12:06:13.444Z,94360.31
2022-09-17T12:09:03.920Z,94357.59
2022-09-17T12:11:56.313Z,94325.88
2022-09-17T12:14:54.193Z,94330.47
2022-09-17T12:18:32.109Z,94323.19
2022-09-17T12:21:23.230Z,94317.47
2022-09-17T12:24:26.488Z,94304.13
2022-09-17T12:27:15.784Z,94294.22
2022-09-17T12:30:20.527Z,94272.94
2022-09-17T12:33:14.373Z,94278.25
2022-09-17T12:36:19.676Z,94276.97
2022-09-17T12:39:54.968Z,94264.44
2022-09-17T12:42:47.853Z,94249.75
2022-09-17T12:46:15.349Z,94257.00
2022-09-17T12:49:23.405Z,94259.97
2022-09-17T12:52:15.505Z,94264.78
2022-09-17T12:55:01.299Z,94245.91
2022-09-17T12:58:05.434Z,94222.63
2022-09-17T13:01:02.147Z,94230.25
2022-09-17T13:03:56.524Z,94228.84
2022-09-17T13:07:06.536Z,94231.41
2022-09-17T13:10:12.836Z,94224.88
2022-09-17T13:13:07.991Z,94218.81
2022-09-17T13:15:57.975Z,94217.94
2022-09-17T13:19:20.355Z,94203.00
2022-09-17T13:22:19.649Z,94215.69
2022-09-17T13:25:09.054Z,94218.38
2022-09-17T13:28:24.689Z,94208.22
2022-09-17T13:31:11.962Z,94189.88
2022-09-17T15:26:29.235Z,94153.53
2022-09-17T15:29:15.680Z,94173.09
2022-09-17T15:32:06.378Z,94164.88
2022-09-17T15:35:15.615Z,94160.16
2022-09-17T15:38:22.304Z,94176.53
2022-09-17T15:41:27.801Z,94166.06
2022-09-17T15:44:30.442Z,94147.19
2022-09-17T15:47:47.748Z,94156.75
2022-09-17T15:50:35.785Z,94152.41
2022-09-17T15:53:32.645Z,94138.75
2022-09-17T15:56:21.986Z,94124.78
2022-09-17T15:59:32.012Z,94131.16
2022-09-17T16:02:30.461Z,94096.31
2022-09-17T16:05:19.202Z,94112.41
2022-09-17T16:08:19.524Z,94110.28
2022-09-17T16:11:05.763Z,94096.38
2022-09-17T16:13:55.893Z,94101.47
2022-09-17T16:16:42.051Z,94101.91
2022-09-17T16:19:27.861Z,94102.19
2022-09-17T16:22:13.834Z,94098.50
2022-09-17T16:24:59.710Z,94099.16
2022-09-17T16:28:00.065Z,94094.19
2022-09-17T16:30:51.750Z,94097.63
2022-09-17T16:33:37.814Z,94093.31
2022-09-17T16:36:23.700Z,94088.59
2022-09-17T16:39:09.592Z,94094.19
2022-09-17T16:41:55.542Z,94095.59
2022-09-17T16:44:41.633Z,94080.28
2022-09-17T16:47:27.600Z,94085.34
2022-09-17T16:50:15.636Z,94080.75
2022-09-17T16:53:05.403Z,94093.69
2022-09-17T16:55:51.424Z,94083.91
2022-09-17T16:58:38.863Z,94053.88
2022-09-17T17:01:25.066Z,94076.50
2022-09-17T17:04:11.069Z,94062.03
2022-09-17T17:06:57.088Z,94064.84
2022-09-17T17:09:42.854Z,94067.88
2022-09-17T17:12:28.819Z,94076.53
2022-09-17T17:15:14.993Z,94068.13
2022-09-17T17:18:00.967Z,94076.69
2022-09-17T17:20:48.711Z,94072.84
2022-09-17T17:23:35.862Z,94081.56
2022-09-17T17:26:21.929Z,94085.97
2022-09-17T17:29:09.114Z,94100.69
2022-09-17T17:31:55.257Z,94099.16
2022-09-17T17:34:41.446Z,94107.88
2022-09-17T17:37:27.516Z,94117.34
2022-09-17T17:40:13.766Z,94107.94
2022-09-17T17:42:59.675Z,94106.81
2022-09-17T17:45:45.648Z,94089.47
2022-09-17T17:48:31.558Z,94095.72
2022-09-17T17:51:23.873Z,94089.53
2022-09-17T17:54:10.117Z,94102.91
2022-09-17T17:56:56.447Z,94109.16
2022-09-17T17:59:42.499Z,94132.31
2022-09-17T18:02:32.525Z,94136.66
2022-09-17T18:05:19.040Z,94144.56
2022-09-17T18:08:04.766Z,94131.56
2022-09-17T18:10:55.448Z,94119.75
2022-09-17T18:13:41.742Z,94138.44
2022-09-17T18:16:29.258Z,94140.63
2022-09-17T18:19:15.534Z,94137.69
2022-09-17T18:22:02.109Z,94142.59
2022-09-17T18:24:48.218Z,94139.38
2022-09-17T18:27:34.011Z,94130.22
2022-09-17T18:30:20.084Z,94141.94
2022-09-17T18:33:06.366Z,94153.03
2022-09-17T18:35:56.997Z,94151.41
2022-09-17T18:38:43.150Z,94140.56
2022-09-17T18:41:29.795Z,94132.72
2022-09-17T18:44:16.081Z,94130.25
2022-09-17T18:47:02.802Z,94144.66
2022-09-17T18:49:48.881Z,94136.25
2022-09-17T18:52:35.264Z,94148.28
2022-09-17T18:55:21.774Z,94139.31
2022-09-17T18:58:07.504Z,94151.84
2022-09-17T19:00:53.559Z,94163.03
2022-09-17T19:03:40.287Z,94162.16
2022-09-17T19:06:27.730Z,94176.56
2022-09-17T19:09:13.783Z,94172.75
2022-09-17T19:12:00.112Z,94149.47
2022-09-17T19:14:46.098Z,94154.88
2022-09-17T19:17:31.992Z,94148.88
2022-09-17T19:20:19.920Z,94158.91
2022-09-17T19:23:07.119Z,94146.16
2022-09-17T19:25:52.945Z,94155.38
2022-09-17T19:28:38.981Z,94145.25
2022-09-17T19:31:25.105Z,94156.13
2022-09-17T19:34:11.333Z,94144.75
2022-09-17T19:36:57.146Z,94164.88
2022-09-17T19:39:43.601Z,94182.00
2022-09-17T19:42:29.947Z,94188.00
2022-09-17T19:45:17.022Z,94182.88
2022-09-17T19:48:05.916Z,94192.13
2022-09-17T19:50:53.523Z,94155.78
2022-09-17T19:53:39.353Z,94194.84
2022-09-17T19:56:27.120Z,94199.78
2022-09-17T19:59:12.956Z,94204.38
2022-09-17T20:01:59.207Z,94209.34
2022-09-17T20:04:45.394Z,94232.66
2022-09-17T20:07:31.676Z,94234.56
2022-09-17T20:10:17.712Z,94231.09
2022-09-17T20:13:04.199Z,94221.25
2022-09-17T20:15:50.291Z,94241.06
2022-09-17T20:18:36.760Z,94238.91
2022-09-17T20:21:30.438Z,94228.03
2022-09-17T20:24:16.439Z,94224.59
2022-09-17T20:27:02.311Z,94220.97
2022-09-17T20:29:48.258Z,94212.56
2022-09-17T20:32:34.217Z,94220.22
2022-09-17T20:35:20.037Z,94215.28
2022-09-17T20:38:59.989Z,94222.88
2022-09-17T20:41:14.140Z,94223.94
2022-09-17T20:44:00.146Z,94221.88
2022-09-17T20:46:46.609Z,94243.31
2022-09-17T20:49:33.721Z,94244.13
2022-09-17T20:52:21.262Z,94250.41
2022-09-17T20:55:08.069Z,94256.13
2022-09-17T20:57:54.309Z,94249.53
2022-09-17T21:00:42.686Z,94267.16
2022-09-17T21:03:30.070Z,94277.63
2022-09-17T21:06:24.329Z,94281.19
2022-09-17T21:09:12.395Z,94287.88
2022-09-17T21:11:58.544Z,94289.50
2022-09-17T21:14:44.490Z,94315.91
2022-09-17T21:17:31.874Z,94307.25
2022-09-17T21:20:17.774Z,94302.16
2022-09-17T21:23:03.685Z,94326.06
2022-09-17T21:25:49.781Z,94322.28
2022-09-17T21:28:36.376Z,94364.63
2022-09-17T21:31:32.090Z,94347.00
2022-09-17T21:34:18.633Z,94393.88
2022-09-17T21:37:05.621Z,94403.13
2022-09-17T21:39:51.895Z,94400.09
2022-09-17T21:42:38.928Z,94422.06
2022-09-17T21:45:25.049Z,94443.16
2022-09-17T21:48:10.926Z,94464.28
2022-09-17T21:51:11.153Z,94451.50
2022-09-17T21:53:59.468Z,94460.91
2022-09-17T21:56:45.995Z,94515.88
2022-09-17T21:59:32.255Z,94533.31
2022-09-17T22:02:18.560Z,94514.34
2022-09-17T22:05:05.047Z,94500.63
2022-09-17T22:07:51.337Z,94500.25
2022-09-17T22:10:37.159Z,94550.69
2022-09-17T22:13:23.234Z,94564.56
2022-09-17T22:16:10.187Z,94553.94
2022-09-17T22:18:56.562Z,94564.31
2022-09-17T22:21:46.041Z,94568.94
2022-09-17T22:24:32.066Z,94574.78
2022-09-17T22:27:17.853Z,94575.66
2022-09-17T22:30:04.001Z,94586.34
2022-09-17T22:32:50.062Z,94590.31
2022-09-17T22:35:36.096Z,94598.16
2022-09-17T22:38:22.307Z,94635.75
2022-09-17T22:41:12.674Z,94599.44
2022-09-17T22:44:04.654Z,94644.84
2022-09-17T22:46:51.710Z,94619.56
2022-09-17T22:49:38.089Z,94619.06
2022-09-17T22:52:24.130Z,94631.47
2022-09-17T22:55:10.534Z,94640.97
2022-09-17T22:57:56.392Z,94638.94
2022-09-17T23:00:42.473Z,94638.25
2022-09-17T23:03:28.953Z,94648.03
2022-09-17T23:06:17.698Z,94652.38
2022-09-17T23:09:04.089Z,94677.03
2022-09-17T23:11:50.304Z,94703.78
2022-09-17T23:14:36.256Z,94686.19
2022-09-17T23:17:25.964Z,94694.53
2022-09-17T23:20:15.474Z,94667.97
2022-09-17T23:23:01.301Z,94689.28
2022-09-17T23:25:47.529Z,94689.28
2022-09-17T23:28:37.325Z,94701.84
2022-09-17T23:31:26.143Z,94719.78
2022-09-17T23:34:12.248Z,94689.09
2022-09-17T23:36:58.372Z,94733.81
2022-09-17T23:39:44.233Z,94711.69
2022-09-17T23:42:34.080Z,94754.72
2022-09-17T23:45:20.048Z,94767.13
2022-09-17T23:48:05.888Z,94773.44
2022-09-17T23:50:51.878Z,94789.19
2022-09-17T23:53:38.748Z,94789.34
2022-09-17T23:56:26.328Z,94809.44
2022-09-17T23:59:12.755Z,94786.75
